Vano — SBNM — position and weather

sailwx.info

Track history (hours):
 
Tides and Currents Weather Stations Pressure Air Temp Water Temp Dewpoint Dewpoint Depression Visibility Wind Speed Wind Dir Waves Ship Positions

Vano

Last reported at 2016-Jul-01 20:33 UTC. Time now 2016-Jul-01 20:54 UTC.
Position N 59°20' E 018°05'.

Length 38 m; draft 1.8 m.

Type: Passenger vessel. MMSI: 265520400.

Date/timePositionNaut miles runAvg speedWind from/ knotsBaromVisibWave heightAir tempDewpointWater temp
2016-Jul-01 20:33N 59°20' E 018°05'0 0.0
2016-Jul-01 19:33N 59°20' E 018°05'0 0.0
2016-Jul-01 18:33N 59°20' E 018°05'0 0.0
2016-Jul-01 17:33N 59°20' E 018°05'0 0.0
2016-Jul-01 09:32N 59°20' E 018°05'0 0.3
2016-Jul-01 08:33N 59°20' E 018°05'3 0.2
2016-Jun-30 15:25N 59°20' E 018°11'3 4.1
2016-Jun-30 14:34N 59°20' E 018°05'0 0.1
2016-Jun-30 06:33N 59°19' E 018°05'0 0.4
2016-Jun-30 05:33N 59°20' E 018°05'0 0.0
2016-Jun-30 03:16N 59°20' E 018°05'0 0.0
2016-Jun-30 02:29N 59°20' E 018°05'0 0.0
2016-Jun-29 20:33N 59°20' E 018°05'0 0.0
2016-Jun-29 14:32N 59°20' E 018°05'0 0.2
2016-Jun-29 13:33N 59°20' E 018°04'0 0.0
2016-Jun-29 12:33N 59°20' E 018°04'0 0.0
2016-Jun-29 11:34N 59°20' E 018°04'0 0.1
2016-Jun-29 10:30N 59°20' E 018°05'0 0.0
2016-Jun-29 09:29N 59°20' E 018°05'0 0.2
2016-Jun-29 08:34N 59°20' E 018°04'6 0.3
2016-Jun-28 14:09N 59°22' E 018°15'6 9.6
2016-Jun-28 13:33N 59°19' E 018°05'3 2.7
2016-Jun-28 12:28N 59°19' E 018°10'1 0.3
2016-Jun-28 08:10N 59°20' E 018°12'4 6.7
2016-Jun-28 07:33N 59°20' E 018°05'0 0.0
2016-Jun-28 06:33N 59°20' E 018°05'4 0.2
2016-Jun-27 14:27N 59°20' E 018°12'4 4.5
2016-Jun-27 13:33N 59°20' E 018°04'4 0.5
2016-Jun-27 06:23N 59°20' E 018°11'4 4.3
2016-Jun-27 05:33N 59°20' E 018°04'0 0.0
2016-Jun-27 04:33N 59°20' E 018°04'0 0.0
2016-Jun-27 03:33N 59°20' E 018°04'0 0.0
2016-Jun-27 02:33N 59°20' E 018°04'0 0.0
2016-Jun-27 01:33N 59°20' E 018°04'0 0.0
2016-Jun-27 00:33N 59°20' E 018°04'0 0.0
2016-Jun-26 23:33N 59°20' E 018°04'0 0.0
2016-Jun-26 22:33N 59°20' E 018°04'0 0.0
2016-Jun-26 21:33N 59°20' E 018°04'0 0.0
2016-Jun-26 20:33N 59°20' E 018°04'0 0.0
2016-Jun-26 19:33N 59°20' E 018°04'0 0.0
2016-Jun-26 18:33N 59°20' E 018°04'1 0.3
2016-Jun-26 13:25N 59°19' E 018°07'1 0.2
2016-Jun-26 06:33N 59°19' E 018°05'0 0.4
2016-Jun-26 05:33N 59°20' E 018°05'0 0.0
2016-Jun-26 04:33N 59°20' E 018°05'0 0.0
2016-Jun-26 03:33N 59°20' E 018°05'0 0.0
2016-Jun-26 02:33N 59°20' E 018°05'0 0.0
2016-Jun-26 01:33N 59°20' E 018°05'0 0.0
2016-Jun-26 00:33N 59°20' E 018°05'0 0.0
2016-Jun-25 23:33N 59°20' E 018°05'0 0.0
2016-Jun-25 22:33N 59°20' E 018°05'0 0.0
2016-Jun-25 21:33N 59°20' E 018°05'0 0.0
2016-Jun-25 20:34N 59°20' E 018°05'0 0.0
2016-Jun-25 19:33N 59°20' E 018°05'0 0.0
2016-Jun-25 18:33N 59°20' E 018°05'3 0.6
2016-Jun-25 13:33N 59°20' E 018°10'0 0.1
2016-Jun-25 12:31N 59°20' E 018°11'3 0.5
2016-Jun-25 06:33N 59°19' E 018°05'0 0.5
2016-Jun-25 05:33N 59°20' E 018°04'0 0.0
2016-Jun-25 04:33N 59°20' E 018°04'0 0.0
2016-Jun-25 03:33N 59°20' E 018°04'0 0.0
2016-Jun-25 02:33N 59°20' E 018°04'0 0.0
2016-Jun-25 01:33N 59°20' E 018°05'0 0.0
2016-Jun-25 00:33N 59°20' E 018°04'0 0.0
2016-Jun-24 23:33N 59°20' E 018°05'0 0.0
2016-Jun-24 22:33N 59°20' E 018°04'0 0.0
2016-Jun-24 21:33N 59°20' E 018°04'0 0.0
2016-Jun-24 20:33N 59°20' E 018°04'0 0.0
2016-Jun-24 19:33N 59°20' E 018°04'0 0.0
2016-Jun-24 18:33N 59°20' E 018°05'0 0.0
2016-Jun-24 17:33N 59°20' E 018°04'0 0.0
2016-Jun-24 16:33N 59°20' E 018°04'0 0.0
2016-Jun-24 15:33N 59°20' E 018°04'0 0.0
2016-Jun-24 14:33N 59°20' E 018°04'0 0.0
2016-Jun-24 13:33N 59°20' E 018°04'3 3.0
2016-Jun-24 12:29N 59°20' E 018°11'3 0.4
2016-Jun-24 04:33N 59°20' E 018°05'0 0.0
2016-Jun-24 03:33N 59°20' E 018°05'0 0.0
2016-Jun-24 02:33N 59°20' E 018°05'0 0.0
2016-Jun-24 01:33N 59°20' E 018°05'0 0.0
2016-Jun-24 00:34N 59°20' E 018°05'0 0.0
2016-Jun-23 23:34N 59°20' E 018°05'0 0.0
2016-Jun-23 22:34N 59°20' E 018°05'0 0.0
2016-Jun-23 21:33N 59°20' E 018°05'0 0.0
2016-Jun-23 20:33N 59°20' E 018°05'0 0.0
2016-Jun-23 19:33N 59°20' E 018°05'0 0.0
2016-Jun-23 18:34N 59°20' E 018°05'0 0.0
2016-Jun-23 17:33N 59°20' E 018°05'0 0.0
2016-Jun-23 09:33N 59°19' E 018°05'0 0.3
2016-Jun-23 08:33N 59°20' E 018°05'4 0.2
2016-Jun-22 15:28N 59°20' E 018°12'4 4.2
2016-Jun-22 14:33N 59°20' E 018°04'0 0.0
2016-Jun-22 06:34N 59°20' E 018°05'0 0.1
2016-Jun-22 05:33N 59°20' E 018°05'0 0.0
2016-Jun-22 04:33N 59°20' E 018°05'0 0.0
2016-Jun-22 03:33N 59°20' E 018°05'0 0.0
2016-Jun-22 02:33N 59°20' E 018°05'0 0.0
2016-Jun-22 01:33N 59°20' E 018°05'0 0.0
2016-Jun-22 00:33N 59°20' E 018°05'0 0.0
2016-Jun-21 23:33N 59°20' E 018°05'0 0.0
2016-Jun-21 22:33N 59°20' E 018°05'0 0.0
2016-Jun-21 21:33N 59°20' E 018°05'0 0.0
2016-Jun-21 20:33N 59°20' E 018°05'  
Track history (hours):
 
Tides and Currents Weather Stations Pressure Air Temp Water Temp Dewpoint Dewpoint Depression Visibility Wind Speed Wind Dir Waves Ship Positions

Vano

Last reported at 2016-Jul-01 20:33 UTC. Time now 2016-Jul-01 20:54 UTC.
Position N 59°20' E 018°05'.

Length 38 m; draft 1.8 m.

Type: Passenger vessel. MMSI: 265520400.

Date/timePositionNaut miles runAvg speedWind from/ knotsBaromVisibWave heightAir tempDewpointWater temp
2016-Jul-01 20:33N 59°20' E 018°05'0 0.0
2016-Jul-01 19:33N 59°20' E 018°05'0 0.0
2016-Jul-01 18:33N 59°20' E 018°05'0 0.0
2016-Jul-01 17:33N 59°20' E 018°05'0 0.0
2016-Jul-01 09:32N 59°20' E 018°05'0 0.3
2016-Jul-01 08:33N 59°20' E 018°05'3 0.2
2016-Jun-30 15:25N 59°20' E 018°11'3 4.1
2016-Jun-30 14:34N 59°20' E 018°05'0 0.1
2016-Jun-30 06:33N 59°19' E 018°05'0 0.4
2016-Jun-30 05:33N 59°20' E 018°05'0 0.0
2016-Jun-30 03:16N 59°20' E 018°05'0 0.0
2016-Jun-30 02:29N 59°20' E 018°05'0 0.0
2016-Jun-29 20:33N 59°20' E 018°05'0 0.0
2016-Jun-29 14:32N 59°20' E 018°05'0 0.2
2016-Jun-29 13:33N 59°20' E 018°04'0 0.0
2016-Jun-29 12:33N 59°20' E 018°04'0 0.0
2016-Jun-29 11:34N 59°20' E 018°04'0 0.1
2016-Jun-29 10:30N 59°20' E 018°05'0 0.0
2016-Jun-29 09:29N 59°20' E 018°05'0 0.2
2016-Jun-29 08:34N 59°20' E 018°04'6 0.3
2016-Jun-28 14:09N 59°22' E 018°15'6 9.6
2016-Jun-28 13:33N 59°19' E 018°05'3 2.7
2016-Jun-28 12:28N 59°19' E 018°10'1 0.3
2016-Jun-28 08:10N 59°20' E 018°12'4 6.7
2016-Jun-28 07:33N 59°20' E 018°05'0 0.0
2016-Jun-28 06:33N 59°20' E 018°05'4 0.2
2016-Jun-27 14:27N 59°20' E 018°12'4 4.5
2016-Jun-27 13:33N 59°20' E 018°04'4 0.5
2016-Jun-27 06:23N 59°20' E 018°11'4 4.3
2016-Jun-27 05:33N 59°20' E 018°04'0 0.0
2016-Jun-27 04:33N 59°20' E 018°04'0 0.0
2016-Jun-27 03:33N 59°20' E 018°04'0 0.0
2016-Jun-27 02:33N 59°20' E 018°04'0 0.0
2016-Jun-27 01:33N 59°20' E 018°04'0 0.0
2016-Jun-27 00:33N 59°20' E 018°04'0 0.0
2016-Jun-26 23:33N 59°20' E 018°04'0 0.0
2016-Jun-26 22:33N 59°20' E 018°04'0 0.0
2016-Jun-26 21:33N 59°20' E 018°04'0 0.0
2016-Jun-26 20:33N 59°20' E 018°04'0 0.0
2016-Jun-26 19:33N 59°20' E 018°04'0 0.0
2016-Jun-26 18:33N 59°20' E 018°04'1 0.3
2016-Jun-26 13:25N 59°19' E 018°07'1 0.2
2016-Jun-26 06:33N 59°19' E 018°05'0 0.4
2016-Jun-26 05:33N 59°20' E 018°05'0 0.0
2016-Jun-26 04:33N 59°20' E 018°05'0 0.0
2016-Jun-26 03:33N 59°20' E 018°05'0 0.0
2016-Jun-26 02:33N 59°20' E 018°05'0 0.0
2016-Jun-26 01:33N 59°20' E 018°05'0 0.0
2016-Jun-26 00:33N 59°20' E 018°05'0 0.0
2016-Jun-25 23:33N 59°20' E 018°05'0 0.0
2016-Jun-25 22:33N 59°20' E 018°05'0 0.0
2016-Jun-25 21:33N 59°20' E 018°05'0 0.0
2016-Jun-25 20:34N 59°20' E 018°05'0 0.0
2016-Jun-25 19:33N 59°20' E 018°05'0 0.0
2016-Jun-25 18:33N 59°20' E 018°05'3 0.6
2016-Jun-25 13:33N 59°20' E 018°10'0 0.1
2016-Jun-25 12:31N 59°20' E 018°11'3 0.5
2016-Jun-25 06:33N 59°19' E 018°05'0 0.5
2016-Jun-25 05:33N 59°20' E 018°04'0 0.0
2016-Jun-25 04:33N 59°20' E 018°04'0 0.0
2016-Jun-25 03:33N 59°20' E 018°04'0 0.0
2016-Jun-25 02:33N 59°20' E 018°04'0 0.0
2016-Jun-25 01:33N 59°20' E 018°05'0 0.0
2016-Jun-25 00:33N 59°20' E 018°04'0 0.0
2016-Jun-24 23:33N 59°20' E 018°05'0 0.0
2016-Jun-24 22:33N 59°20' E 018°04'0 0.0
2016-Jun-24 21:33N 59°20' E 018°04'0 0.0
2016-Jun-24 20:33N 59°20' E 018°04'0 0.0
2016-Jun-24 19:33N 59°20' E 018°04'0 0.0
2016-Jun-24 18:33N 59°20' E 018°05'0 0.0
2016-Jun-24 17:33N 59°20' E 018°04'0 0.0
2016-Jun-24 16:33N 59°20' E 018°04'0 0.0
2016-Jun-24 15:33N 59°20' E 018°04'0 0.0
2016-Jun-24 14:33N 59°20' E 018°04'0 0.0
2016-Jun-24 13:33N 59°20' E 018°04'3 3.0
2016-Jun-24 12:29N 59°20' E 018°11'3 0.4
2016-Jun-24 04:33N 59°20' E 018°05'0 0.0
2016-Jun-24 03:33N 59°20' E 018°05'0 0.0
2016-Jun-24 02:33N 59°20' E 018°05'0 0.0
2016-Jun-24 01:33N 59°20' E 018°05'0 0.0
2016-Jun-24 00:34N 59°20' E 018°05'0 0.0
2016-Jun-23 23:34N 59°20' E 018°05'0 0.0
2016-Jun-23 22:34N 59°20' E 018°05'0 0.0
2016-Jun-23 21:33N 59°20' E 018°05'0 0.0
2016-Jun-23 20:33N 59°20' E 018°05'0 0.0
2016-Jun-23 19:33N 59°20' E 018°05'0 0.0
2016-Jun-23 18:34N 59°20' E 018°05'0 0.0
2016-Jun-23 17:33N 59°20' E 018°05'0 0.0
2016-Jun-23 09:33N 59°19' E 018°05'0 0.3
2016-Jun-23 08:33N 59°20' E 018°05'4 0.2
2016-Jun-22 15:28N 59°20' E 018°12'4 4.2
2016-Jun-22 14:33N 59°20' E 018°04'0 0.0
2016-Jun-22 06:34N 59°20' E 018°05'0 0.1
2016-Jun-22 05:33N 59°20' E 018°05'0 0.0
2016-Jun-22 04:33N 59°20' E 018°05'0 0.0
2016-Jun-22 03:33N 59°20' E 018°05'0 0.0
2016-Jun-22 02:33N 59°20' E 018°05'0 0.0
2016-Jun-22 01:33N 59°20' E 018°05'0 0.0
2016-Jun-22 00:33N 59°20' E 018°05'0 0.0
2016-Jun-21 23:33N 59°20' E 018°05'0 0.0
2016-Jun-21 22:33N 59°20' E 018°05'0 0.0
2016-Jun-21 21:33N 59°20' E 018°05'0 0.0
2016-Jun-21 20:33N 59°20' E 018°05'  

Dump ship's entire track history